sensor_id;sensor_type;location;lat;lon;timestamp;pressure;altitude;pressure_sealevel;temperature;humidity
38688;BME280;24444;53.216;-6.664;2022-12-18T00:01:52;100310.09;;;-2.24;100.00
38688;BME280;24444;53.216;-6.664;2022-12-18T00:04:22;100308.83;;;-1.89;100.00
38688;BME280;24444;53.216;-6.664;2022-12-18T00:06:50;100308.54;;;-2.13;100.00
38688;BME280;24444;53.216;-6.664;2022-12-18T00:09:17;100309.14;;;-2.67;100.00
38688;BME280;24444;53.216;-6.664;2022-12-18T00:11:44;100310.21;;;-2.93;100.00
38688;BME280;24444;53.216;-6.664;2022-12-18T00:14:13;100310.39;;;-3.02;100.00
38688;BME280;24444;53.216;-6.664;2022-12-18T00:16:43;100314.61;;;-3.34;100.00
38688;BME280;24444;53.216;-6.664;2022-12-18T00:19:11;100313.95;;;-3.46;100.00
38688;BME280;24444;53.216;-6.664;2022-12-18T00:21:42;100316.87;;;-3.18;100.00
38688;BME280;24444;53.216;-6.664;2022-12-18T00:24:10;100317.67;;;-3.06;100.00
38688;BME280;24444;53.216;-6.664;2022-12-18T00:26:38;100320.66;;;-3.05;100.00
38688;BME280;24444;53.216;-6.664;2022-12-18T00:29:07;100320.96;;;-2.47;100.00
38688;BME280;24444;53.216;-6.664;2022-12-18T00:31:35;100320.86;;;-2.52;100.00
38688;BME280;24444;53.216;-6.664;2022-12-18T00:34:02;100315.02;;;-1.94;100.00
38688;BME280;24444;53.216;-6.664;2022-12-18T00:36:31;100312.72;;;-2.37;100.00
38688;BME280;24444;53.216;-6.664;2022-12-18T00:39:03;100316.00;;;-1.88;100.00
38688;BME280;24444;53.216;-6.664;2022-12-18T00:41:31;100309.77;;;-1.80;100.00
38688;BME280;24444;53.216;-6.664;2022-12-18T00:43:58;100308.21;;;-1.30;100.00
38688;BME280;24444;53.216;-6.664;2022-12-18T00:46:26;100305.29;;;-1.86;100.00
38688;BME280;24444;53.216;-6.664;2022-12-18T00:48:53;100297.39;;;-2.03;100.00
38688;BME280;24444;53.216;-6.664;2022-12-18T00:51:20;100296.23;;;-1.54;100.00
38688;BME280;24444;53.216;-6.664;2022-12-18T00:53:48;100306.78;;;-1.88;100.00
38688;BME280;24444;53.216;-6.664;2022-12-18T00:56:15;100312.76;;;-1.88;100.00
38688;BME280;24444;53.216;-6.664;2022-12-18T00:58:42;100309.89;;;-2.20;100.00
38688;BME280;24444;53.216;-6.664;2022-12-18T01:01:09;100305.44;;;-1.62;100.00
38688;BME280;24444;53.216;-6.664;2022-12-18T01:03:36;100297.65;;;-2.20;100.00
38688;BME280;24444;53.216;-6.664;2022-12-18T01:06:06;100287.88;;;-2.30;100.00
38688;BME280;24444;53.216;-6.664;2022-12-18T01:08:33;100286.72;;;-2.13;100.00
38688;BME280;24444;53.216;-6.664;2022-12-18T01:11:06;100284.40;;;-2.14;100.00
38688;BME280;24444;53.216;-6.664;2022-12-18T01:13:33;100279.65;;;-1.32;100.00
38688;BME280;24444;53.216;-6.664;2022-12-18T01:16:01;100277.78;;;-2.11;100.00
38688;BME280;24444;53.216;-6.664;2022-12-18T01:18:29;100284.43;;;-1.83;100.00
38688;BME280;24444;53.216;-6.664;2022-12-18T01:20:56;100277.08;;;-2.07;100.00
38688;BME280;24444;53.216;-6.664;2022-12-18T01:23:23;100264.14;;;-2.02;100.00
38688;BME280;24444;53.216;-6.664;2022-12-18T01:25:50;100258.84;;;-1.74;100.00
38688;BME280;24444;53.216;-6.664;2022-12-18T01:28:18;100253.15;;;-1.88;100.00
38688;BME280;24444;53.216;-6.664;2022-12-18T01:30:46;100259.06;;;-2.05;100.00
38688;BME280;24444;53.216;-6.664;2022-12-18T01:33:13;100252.94;;;-2.30;100.00
38688;BME280;24444;53.216;-6.664;2022-12-18T01:35:41;100245.29;;;-1.46;100.00
38688;BME280;24444;53.216;-6.664;2022-12-18T01:38:09;100232.81;;;-1.76;100.00
38688;BME280;24444;53.216;-6.664;2022-12-18T01:40:36;100226.66;;;-1.65;100.00
38688;BME280;24444;53.216;-6.664;2022-12-18T01:43:04;100236.98;;;-1.98;100.00
38688;BME280;24444;53.216;-6.664;2022-12-18T01:45:32;100231.60;;;-1.73;100.00
38688;BME280;24444;53.216;-6.664;2022-12-18T01:48:01;100208.68;;;-1.40;100.00
38688;BME280;24444;53.216;-6.664;2022-12-18T01:50:31;100201.79;;;-1.20;100.00
38688;BME280;24444;53.216;-6.664;2022-12-18T01:53:03;100192.44;;;-1.61;100.00
38688;BME280;24444;53.216;-6.664;2022-12-18T01:55:36;100197.17;;;-2.00;100.00
38688;BME280;24444;53.216;-6.664;2022-12-18T01:58:05;100190.63;;;-0.36;100.00
38688;BME280;24444;53.216;-6.664;2022-12-18T02:00:34;100195.06;;;-1.57;100.00
38688;BME280;24444;53.216;-6.664;2022-12-18T02:03:01;100194.75;;;-0.98;100.00
38688;BME280;24444;53.216;-6.664;2022-12-18T02:05:39;100181.24;;;-1.08;100.00
38688;BME280;24444;53.216;-6.664;2022-12-18T02:08:15;100176.19;;;-0.24;100.00
38688;BME280;24444;53.216;-6.664;2022-12-18T02:10:48;100174.18;;;-1.38;100.00
38688;BME280;24444;53.216;-6.664;2022-12-18T02:13:30;100174.65;;;-1.35;100.00
38688;BME280;24444;53.216;-6.664;2022-12-18T02:16:04;100174.30;;;-1.71;100.00
38688;BME280;24444;53.216;-6.664;2022-12-18T02:18:36;100169.09;;;-1.71;100.00
38688;BME280;24444;53.216;-6.664;2022-12-18T02:21:12;100165.66;;;-1.48;100.00
38688;BME280;24444;53.216;-6.664;2022-12-18T02:23:47;100161.85;;;-1.90;100.00
38688;BME280;24444;53.216;-6.664;2022-12-18T02:26:21;100160.03;;;-1.54;100.00
38688;BME280;24444;53.216;-6.664;2022-12-18T02:28:53;100164.63;;;-1.94;100.00
38688;BME280;24444;53.216;-6.664;2022-12-18T02:31:25;100159.04;;;-2.01;100.00
38688;BME280;24444;53.216;-6.664;2022-12-18T02:33:55;100159.10;;;-1.68;100.00
38688;BME280;24444;53.216;-6.664;2022-12-18T02:36:23;100151.63;;;-1.20;100.00
38688;BME280;24444;53.216;-6.664;2022-12-18T02:38:54;100143.54;;;-1.24;100.00
38688;BME280;24444;53.216;-6.664;2022-12-18T02:41:22;100138.64;;;-2.10;100.00
38688;BME280;24444;53.216;-6.664;2022-12-18T02:43:56;100133.30;;;-1.60;100.00
38688;BME280;24444;53.216;-6.664;2022-12-18T02:46:29;100133.75;;;-1.56;100.00
38688;BME280;24444;53.216;-6.664;2022-12-18T02:49:04;100130.12;;;-1.89;100.00
38688;BME280;24444;53.216;-6.664;2022-12-18T02:51:40;100130.41;;;-2.08;100.00
38688;BME280;24444;53.216;-6.664;2022-12-18T02:54:20;100126.39;;;-1.45;100.00
38688;BME280;24444;53.216;-6.664;2022-12-18T02:56:54;100121.90;;;-1.88;100.00
38688;BME280;24444;53.216;-6.664;2022-12-18T02:59:27;100105.23;;;-1.66;100.00
38688;BME280;24444;53.216;-6.664;2022-12-18T03:02:07;100095.34;;;-1.91;100.00
38688;BME280;24444;53.216;-6.664;2022-12-18T03:04:40;100086.90;;;-1.36;100.00
38688;BME280;24444;53.216;-6.664;2022-12-18T03:07:16;100078.05;;;-1.48;100.00
38688;BME280;24444;53.216;-6.664;2022-12-18T03:09:49;100073.35;;;-1.48;100.00
38688;BME280;24444;53.216;-6.664;2022-12-18T03:12:21;100057.12;;;-1.55;100.00
38688;BME280;24444;53.216;-6.664;2022-12-18T03:14:55;100046.18;;;-1.94;100.00
38688;BME280;24444;53.216;-6.664;2022-12-18T03:17:25;100042.04;;;-1.57;100.00
38688;BME280;24444;53.216;-6.664;2022-12-18T03:19:56;100029.71;;;-1.94;100.00
38688;BME280;24444;53.216;-6.664;2022-12-18T03:22:27;100019.94;;;-1.64;100.00
38688;BME280;24444;53.216;-6.664;2022-12-18T03:24:57;100016.23;;;-1.17;100.00
38688;BME280;24444;53.216;-6.664;2022-12-18T03:27:27;100017.08;;;-1.76;100.00
38688;BME280;24444;53.216;-6.664;2022-12-18T03:30:02;100024.68;;;-1.61;100.00
38688;BME280;24444;53.216;-6.664;2022-12-18T03:32:31;100021.69;;;-1.55;100.00
38688;BME280;24444;53.216;-6.664;2022-12-18T03:35:03;100016.55;;;-1.65;100.00
38688;BME280;24444;53.216;-6.664;2022-12-18T03:37:31;100020.93;;;-1.88;100.00
38688;BME280;24444;53.216;-6.664;2022-12-18T03:39:58;100028.64;;;-1.75;100.00
38688;BME280;24444;53.216;-6.664;2022-12-18T03:42:29;100028.57;;;-1.65;100.00
38688;BME280;24444;53.216;-6.664;2022-12-18T03:45:03;100024.49;;;-1.84;100.00
38688;BME280;24444;53.216;-6.664;2022-12-18T03:47:39;100017.89;;;-1.76;100.00
38688;BME280;24444;53.216;-6.664;2022-12-18T03:50:14;100000.63;;;-1.27;98.64
38688;BME280;24444;53.216;-6.664;2022-12-18T03:52:48;99995.06;;;-0.92;96.89
38688;BME280;24444;53.216;-6.664;2022-12-18T03:55:17;99994.57;;;-1.47;96.53
38688;BME280;24444;53.216;-6.664;2022-12-18T03:57:47;99989.67;;;-1.23;96.14
38688;BME280;24444;53.216;-6.664;2022-12-18T04:00:17;99984.91;;;-1.06;96.48
38688;BME280;24444;53.216;-6.664;2022-12-18T04:02:49;99975.50;;;-2.10;97.82
38688;BME280;24444;53.216;-6.664;2022-12-18T04:05:18;99975.70;;;-1.72;98.90
38688;BME280;24444;53.216;-6.664;2022-12-18T04:07:47;99977.58;;;-1.71;98.34
38688;BME280;24444;53.216;-6.664;2022-12-18T04:10:16;99966.89;;;-1.34;99.50
38688;BME280;24444;53.216;-6.664;2022-12-18T04:12:44;99951.48;;;-1.35;99.52
38688;BME280;24444;53.216;-6.664;2022-12-18T04:15:12;99939.35;;;-1.29;99.33
38688;BME280;24444;53.216;-6.664;2022-12-18T04:17:47;99932.72;;;-1.30;99.04
38688;BME280;24444;53.216;-6.664;2022-12-18T04:20:15;99930.58;;;-0.93;98.19
38688;BME280;24444;53.216;-6.664;2022-12-18T04:22:43;99917.22;;;-1.17;98.30
38688;BME280;24444;53.216;-6.664;2022-12-18T04:25:10;99910.06;;;-1.19;97.55
38688;BME280;24444;53.216;-6.664;2022-12-18T04:27:38;99906.46;;;-0.84;97.41
38688;BME280;24444;53.216;-6.664;2022-12-18T04:30:06;99902.67;;;-1.25;97.79
38688;BME280;24444;53.216;-6.664;2022-12-18T04:32:35;99897.86;;;-0.54;97.43
38688;BME280;24444;53.216;-6.664;2022-12-18T04:35:02;99908.57;;;-0.85;96.62
38688;BME280;24444;53.216;-6.664;2022-12-18T04:37:30;99896.77;;;-0.97;96.82
38688;BME280;24444;53.216;-6.664;2022-12-18T04:39:57;99898.08;;;-1.23;95.23
38688;BME280;24444;53.216;-6.664;2022-12-18T04:42:24;99895.72;;;-1.25;96.08
38688;BME280;24444;53.216;-6.664;2022-12-18T04:44:51;99895.15;;;-1.02;96.70
38688;BME280;24444;53.216;-6.664;2022-12-18T04:47:19;99887.10;;;-0.67;96.32
38688;BME280;24444;53.216;-6.664;2022-12-18T04:49:46;99864.39;;;-1.08;95.66
38688;BME280;24444;53.216;-6.664;2022-12-18T04:52:14;99873.22;;;-1.20;96.67
38688;BME280;24444;53.216;-6.664;2022-12-18T04:54:41;99867.04;;;-1.11;96.38
38688;BME280;24444;53.216;-6.664;2022-12-18T04:57:08;99857.84;;;-1.08;95.97
38688;BME280;24444;53.216;-6.664;2022-12-18T04:59:35;99857.27;;;-1.30;95.21
38688;BME280;24444;53.216;-6.664;2022-12-18T05:02:02;99846.42;;;-0.91;95.67
38688;BME280;24444;53.216;-6.664;2022-12-18T05:04:29;99833.70;;;-0.69;95.14
38688;BME280;24444;53.216;-6.664;2022-12-18T05:06:56;99827.96;;;-1.06;96.71
38688;BME280;24444;53.216;-6.664;2022-12-18T05:09:23;99819.89;;;-1.22;95.10
38688;BME280;24444;53.216;-6.664;2022-12-18T05:11:50;99818.21;;;-1.13;97.15
38688;BME280;24444;53.216;-6.664;2022-12-18T05:14:18;99816.51;;;-0.71;98.78
38688;BME280;24444;53.216;-6.664;2022-12-18T05:16:45;99825.40;;;-1.30;99.85
38688;BME280;24444;53.216;-6.664;2022-12-18T05:19:12;99820.89;;;-1.25;100.00
38688;BME280;24444;53.216;-6.664;2022-12-18T05:21:39;99818.87;;;-0.96;100.00
38688;BME280;24444;53.216;-6.664;2022-12-18T05:24:07;99817.43;;;-1.44;100.00
38688;BME280;24444;53.216;-6.664;2022-12-18T05:26:35;99814.77;;;-0.77;100.00
38688;BME280;24444;53.216;-6.664;2022-12-18T05:29:02;99804.94;;;-0.64;100.00
38688;BME280;24444;53.216;-6.664;2022-12-18T05:31:29;99794.76;;;-1.02;100.00
38688;BME280;24444;53.216;-6.664;2022-12-18T05:33:57;99795.59;;;-0.74;100.00
38688;BME280;24444;53.216;-6.664;2022-12-18T05:36:24;99788.97;;;-1.14;100.00
38688;BME280;24444;53.216;-6.664;2022-12-18T05:38:51;99778.52;;;-1.77;100.00
38688;BME280;24444;53.216;-6.664;2022-12-18T05:41:18;99772.76;;;-1.31;100.00
38688;BME280;24444;53.216;-6.664;2022-12-18T05:43:45;99773.52;;;-1.27;100.00
38688;BME280;24444;53.216;-6.664;2022-12-18T05:46:14;99778.48;;;-0.84;100.00
38688;BME280;24444;53.216;-6.664;2022-12-18T05:48:42;99771.51;;;-1.24;100.00
38688;BME280;24444;53.216;-6.664;2022-12-18T05:51:12;99759.71;;;-1.22;100.00
38688;BME280;24444;53.216;-6.664;2022-12-18T05:53:40;99759.97;;;-1.45;100.00
38688;BME280;24444;53.216;-6.664;2022-12-18T05:56:10;99749.71;;;-1.15;100.00
38688;BME280;24444;53.216;-6.664;2022-12-18T05:58:37;99744.44;;;-1.16;100.00
38688;BME280;24444;53.216;-6.664;2022-12-18T06:01:09;99738.05;;;-2.08;100.00
38688;BME280;24444;53.216;-6.664;2022-12-18T06:03:36;99728.78;;;-1.62;100.00
38688;BME280;24444;53.216;-6.664;2022-12-18T06:06:03;99720.20;;;-1.54;100.00
38688;BME280;24444;53.216;-6.664;2022-12-18T06:08:31;99713.85;;;-1.39;100.00
38688;BME280;24444;53.216;-6.664;2022-12-18T06:10:58;99716.29;;;-1.09;100.00
38688;BME280;24444;53.216;-6.664;2022-12-18T06:13:25;99714.68;;;-1.16;100.00
38688;BME280;24444;53.216;-6.664;2022-12-18T06:15:52;99711.32;;;-1.70;100.00
38688;BME280;24444;53.216;-6.664;2022-12-18T06:18:19;99709.84;;;-1.07;100.00
38688;BME280;24444;53.216;-6.664;2022-12-18T06:20:54;99697.52;;;-1.05;100.00
38688;BME280;24444;53.216;-6.664;2022-12-18T06:23:22;99681.75;;;-0.94;100.00
38688;BME280;24444;53.216;-6.664;2022-12-18T06:25:49;99670.10;;;-1.48;100.00
38688;BME280;24444;53.216;-6.664;2022-12-18T06:28:17;99664.36;;;-1.67;100.00
38688;BME280;24444;53.216;-6.664;2022-12-18T06:30:45;99650.47;;;-1.22;100.00
38688;BME280;24444;53.216;-6.664;2022-12-18T06:33:13;99647.53;;;-1.23;100.00
38688;BME280;24444;53.216;-6.664;2022-12-18T06:35:41;99653.01;;;-0.78;100.00
38688;BME280;24444;53.216;-6.664;2022-12-18T06:38:08;99641.68;;;-1.79;100.00
38688;BME280;24444;53.216;-6.664;2022-12-18T06:40:37;99641.84;;;-1.41;100.00
38688;BME280;24444;53.216;-6.664;2022-12-18T06:43:05;99644.53;;;-1.73;100.00
38688;BME280;24444;53.216;-6.664;2022-12-18T06:45:33;99633.72;;;-0.88;100.00
38688;BME280;24444;53.216;-6.664;2022-12-18T06:48:00;99622.30;;;-0.87;100.00
38688;BME280;24444;53.216;-6.664;2022-12-18T06:50:27;99618.47;;;-0.98;100.00
38688;BME280;24444;53.216;-6.664;2022-12-18T06:52:54;99617.72;;;-1.31;100.00
38688;BME280;24444;53.216;-6.664;2022-12-18T06:55:21;99605.84;;;-0.73;100.00
38688;BME280;24444;53.216;-6.664;2022-12-18T06:57:48;99607.90;;;-1.32;100.00
38688;BME280;24444;53.216;-6.664;2022-12-18T07:00:15;99605.37;;;-2.01;100.00
38688;BME280;24444;53.216;-6.664;2022-12-18T07:02:43;99599.92;;;-2.21;100.00
38688;BME280;24444;53.216;-6.664;2022-12-18T07:05:10;99594.71;;;-1.84;100.00
38688;BME280;24444;53.216;-6.664;2022-12-18T07:07:37;99585.77;;;-1.32;100.00
38688;BME280;24444;53.216;-6.664;2022-12-18T07:10:04;99579.40;;;-1.56;100.00
38688;BME280;24444;53.216;-6.664;2022-12-18T07:12:32;99575.39;;;-1.97;100.00
38688;BME280;24444;53.216;-6.664;2022-12-18T07:14:59;99553.23;;;-1.79;100.00
38688;BME280;24444;53.216;-6.664;2022-12-18T07:17:26;99560.15;;;-1.22;100.00
38688;BME280;24444;53.216;-6.664;2022-12-18T07:19:53;99560.43;;;-0.95;100.00
38688;BME280;24444;53.216;-6.664;2022-12-18T07:22:21;99563.82;;;-1.24;100.00
38688;BME280;24444;53.216;-6.664;2022-12-18T07:24:48;99560.54;;;-1.12;100.00
38688;BME280;24444;53.216;-6.664;2022-12-18T07:27:15;99557.15;;;-1.88;100.00
38688;BME280;24444;53.216;-6.664;2022-12-18T07:29:42;99543.81;;;-1.32;100.00
38688;BME280;24444;53.216;-6.664;2022-12-18T07:32:09;99540.26;;;-2.05;100.00
38688;BME280;24444;53.216;-6.664;2022-12-18T07:34:36;99528.35;;;-2.17;100.00
38688;BME280;24444;53.216;-6.664;2022-12-18T07:37:04;99485.97;;;-1.96;100.00
38688;BME280;24444;53.216;-6.664;2022-12-18T07:39:31;99474.80;;;-1.84;100.00
38688;BME280;24444;53.216;-6.664;2022-12-18T07:41:59;99459.40;;;-1.24;100.00
38688;BME280;24444;53.216;-6.664;2022-12-18T07:44:26;99438.40;;;-1.69;100.00
38688;BME280;24444;53.216;-6.664;2022-12-18T07:46:53;99423.40;;;-1.33;100.00
38688;BME280;24444;53.216;-6.664;2022-12-18T07:49:21;99409.40;;;-0.79;100.00
38688;BME280;24444;53.216;-6.664;2022-12-18T07:51:48;99408.81;;;-1.68;100.00
38688;BME280;24444;53.216;-6.664;2022-12-18T07:54:15;99410.55;;;-1.12;100.00
38688;BME280;24444;53.216;-6.664;2022-12-18T07:56:42;99401.38;;;-0.86;100.00
38688;BME280;24444;53.216;-6.664;2022-12-18T07:59:09;99383.90;;;-1.36;100.00
38688;BME280;24444;53.216;-6.664;2022-12-18T08:01:36;99374.06;;;-1.02;100.00
38688;BME280;24444;53.216;-6.664;2022-12-18T08:04:04;99372.74;;;-1.24;100.00
38688;BME280;24444;53.216;-6.664;2022-12-18T08:06:32;99357.62;;;-1.08;100.00
38688;BME280;24444;53.216;-6.664;2022-12-18T08:08:59;99354.86;;;-1.49;100.00
38688;BME280;24444;53.216;-6.664;2022-12-18T08:11:27;99352.79;;;-1.16;100.00
38688;BME280;24444;53.216;-6.664;2022-12-18T08:13:55;99339.49;;;-1.10;100.00
38688;BME280;24444;53.216;-6.664;2022-12-18T08:16:22;99340.83;;;-1.18;100.00
38688;BME280;24444;53.216;-6.664;2022-12-18T08:18:51;99326.20;;;-0.90;100.00
38688;BME280;24444;53.216;-6.664;2022-12-18T08:21:20;99322.67;;;-1.50;100.00
38688;BME280;24444;53.216;-6.664;2022-12-18T08:23:48;99320.39;;;-1.58;100.00
38688;BME280;24444;53.216;-6.664;2022-12-18T08:26:16;99313.94;;;-1.46;100.00
38688;BME280;24444;53.216;-6.664;2022-12-18T08:28:43;99307.70;;;-1.47;100.00
38688;BME280;24444;53.216;-6.664;2022-12-18T08:31:11;99318.38;;;-1.44;100.00
38688;BME280;24444;53.216;-6.664;2022-12-18T08:33:39;99309.27;;;-1.62;100.00
38688;BME280;24444;53.216;-6.664;2022-12-18T08:36:08;99309.55;;;-1.36;100.00
38688;BME280;24444;53.216;-6.664;2022-12-18T08:38:36;99305.16;;;-1.57;100.00
38688;BME280;24444;53.216;-6.664;2022-12-18T08:41:05;99303.93;;;-1.70;100.00
38688;BME280;24444;53.216;-6.664;2022-12-18T08:43:33;99318.03;;;-1.21;100.00
38688;BME280;24444;53.216;-6.664;2022-12-18T08:46:00;99311.32;;;-1.32;100.00
38688;BME280;24444;53.216;-6.664;2022-12-18T08:48:27;99320.21;;;-1.74;100.00
38688;BME280;24444;53.216;-6.664;2022-12-18T08:50:55;99314.33;;;-1.47;100.00
38688;BME280;24444;53.216;-6.664;2022-12-18T08:53:23;99312.04;;;-1.54;100.00
38688;BME280;24444;53.216;-6.664;2022-12-18T08:55:51;99296.57;;;-1.49;100.00
38688;BME280;24444;53.216;-6.664;2022-12-18T08:58:18;99297.76;;;-1.63;100.00
38688;BME280;24444;53.216;-6.664;2022-12-18T09:00:46;99293.67;;;-1.83;100.00
38688;BME280;24444;53.216;-6.664;2022-12-18T09:03:14;99288.97;;;-1.82;100.00
38688;BME280;24444;53.216;-6.664;2022-12-18T09:05:43;99282.46;;;-1.72;100.00
38688;BME280;24444;53.216;-6.664;2022-12-18T09:08:12;99271.69;;;-1.85;100.00
38688;BME280;24444;53.216;-6.664;2022-12-18T09:10:42;99260.61;;;-1.88;100.00
38688;BME280;24444;53.216;-6.664;2022-12-18T09:13:10;99239.61;;;-1.74;100.00
38688;BME280;24444;53.216;-6.664;2022-12-18T09:15:41;99238.57;;;-1.76;100.00
38688;BME280;24444;53.216;-6.664;2022-12-18T09:18:09;99229.26;;;-2.07;100.00
38688;BME280;24444;53.216;-6.664;2022-12-18T09:20:37;99219.92;;;-1.31;100.00
38688;BME280;24444;53.216;-6.664;2022-12-18T09:23:05;99206.30;;;-1.31;100.00
38688;BME280;24444;53.216;-6.664;2022-12-18T09:25:34;99202.33;;;-1.85;100.00
38688;BME280;24444;53.216;-6.664;2022-12-18T09:28:03;99206.95;;;-1.36;100.00
38688;BME280;24444;53.216;-6.664;2022-12-18T09:30:31;99192.53;;;-1.28;100.00
38688;BME280;24444;53.216;-6.664;2022-12-18T09:32:58;99178.99;;;-1.76;100.00
38688;BME280;24444;53.216;-6.664;2022-12-18T09:35:25;99181.54;;;-1.56;100.00
38688;BME280;24444;53.216;-6.664;2022-12-18T09:37:53;99188.49;;;-1.16;100.00
38688;BME280;24444;53.216;-6.664;2022-12-18T09:40:23;99191.37;;;-1.45;100.00
38688;BME280;24444;53.216;-6.664;2022-12-18T09:42:56;99184.57;;;-1.00;100.00
38688;BME280;24444;53.216;-6.664;2022-12-18T09:45:25;99166.85;;;-1.22;100.00
38688;BME280;24444;53.216;-6.664;2022-12-18T09:47:54;99169.83;;;-1.06;100.00
38688;BME280;24444;53.216;-6.664;2022-12-18T09:50:26;99169.79;;;-0.36;100.00
38688;BME280;24444;53.216;-6.664;2022-12-18T09:53:02;99167.76;;;-0.55;100.00
38688;BME280;24444;53.216;-6.664;2022-12-18T09:55:34;99175.95;;;-0.61;100.00
38688;BME280;24444;53.216;-6.664;2022-12-18T09:58:05;99180.61;;;-0.12;100.00
38688;BME280;24444;53.216;-6.664;2022-12-18T10:00:34;99164.52;;;-0.74;100.00
38688;BME280;24444;53.216;-6.664;2022-12-18T10:03:08;99150.87;;;-0.29;100.00
38688;BME280;24444;53.216;-6.664;2022-12-18T10:05:40;99141.97;;;0.33;100.00
38688;BME280;24444;53.216;-6.664;2022-12-18T10:08:15;99135.85;;;-0.71;100.00
38688;BME280;24444;53.216;-6.664;2022-12-18T10:10:48;99118.63;;;-1.07;100.00
38688;BME280;24444;53.216;-6.664;2022-12-18T10:13:23;99115.60;;;-0.08;100.00
38688;BME280;24444;53.216;-6.664;2022-12-18T10:16:00;99111.75;;;-0.58;100.00
38688;BME280;24444;53.216;-6.664;2022-12-18T10:18:42;99089.89;;;-0.17;100.00
38688;BME280;24444;53.216;-6.664;2022-12-18T10:21:20;99086.01;;;-0.60;100.00
38688;BME280;24444;53.216;-6.664;2022-12-18T10:23:54;99078.14;;;-0.36;100.00
38688;BME280;24444;53.216;-6.664;2022-12-18T10:26:24;99081.30;;;-0.30;100.00
38688;BME280;24444;53.216;-6.664;2022-12-18T10:28:53;99084.99;;;-0.14;100.00
38688;BME280;24444;53.216;-6.664;2022-12-18T10:31:23;99077.15;;;0.00;100.00
38688;BME280;24444;53.216;-6.664;2022-12-18T10:33:51;99068.14;;;-0.32;100.00
38688;BME280;24444;53.216;-6.664;2022-12-18T10:36:21;99058.96;;;0.11;100.00
38688;BME280;24444;53.216;-6.664;2022-12-18T10:38:49;99052.11;;;-0.16;100.00
38688;BME280;24444;53.216;-6.664;2022-12-18T10:41:25;99040.28;;;0.18;100.00
38688;BME280;24444;53.216;-6.664;2022-12-18T10:44:14;99041.94;;;0.72;100.00
38688;BME280;24444;53.216;-6.664;2022-12-18T10:46:42;99031.65;;;0.11;100.00
38688;BME280;24444;53.216;-6.664;2022-12-18T10:49:19;99025.83;;;0.33;100.00
38688;BME280;24444;53.216;-6.664;2022-12-18T10:51:48;99026.85;;;0.05;100.00
38688;BME280;24444;53.216;-6.664;2022-12-18T10:54:18;99002.40;;;0.44;100.00
38688;BME280;24444;53.216;-6.664;2022-12-18T10:56:48;99001.54;;;0.48;100.00
38688;BME280;24444;53.216;-6.664;2022-12-18T10:59:17;98995.10;;;0.59;100.00
38688;BME280;24444;53.216;-6.664;2022-12-18T11:01:48;98989.04;;;0.24;100.00
38688;BME280;24444;53.216;-6.664;2022-12-18T11:04:20;98986.93;;;0.70;100.00
38688;BME280;24444;53.216;-6.664;2022-12-18T11:06:55;98982.95;;;0.70;100.00
38688;BME280;24444;53.216;-6.664;2022-12-18T11:09:25;98984.67;;;0.35;100.00
38688;BME280;24444;53.216;-6.664;2022-12-18T11:11:54;98976.84;;;0.29;100.00
38688;BME280;24444;53.216;-6.664;2022-12-18T11:14:24;98962.12;;;0.62;100.00
38688;BME280;24444;53.216;-6.664;2022-12-18T11:16:52;98965.20;;;0.29;100.00
38688;BME280;24444;53.216;-6.664;2022-12-18T11:19:31;98956.95;;;1.06;100.00
38688;BME280;24444;53.216;-6.664;2022-12-18T11:22:00;98949.65;;;0.58;100.00
38688;BME280;24444;53.216;-6.664;2022-12-18T11:24:30;98955.83;;;0.39;100.00
38688;BME280;24444;53.216;-6.664;2022-12-18T11:27:01;98940.85;;;0.82;100.00
38688;BME280;24444;53.216;-6.664;2022-12-18T11:29:34;98941.85;;;1.06;100.00
38688;BME280;24444;53.216;-6.664;2022-12-18T11:32:27;98939.72;;;1.41;100.00
38688;BME280;24444;53.216;-6.664;2022-12-18T11:35:01;98937.89;;;1.53;100.00
38688;BME280;24444;53.216;-6.664;2022-12-18T11:37:31;98901.08;;;0.84;100.00
38688;BME280;24444;53.216;-6.664;2022-12-18T11:40:03;98914.49;;;0.76;100.00
38688;BME280;24444;53.216;-6.664;2022-12-18T11:42:38;98912.08;;;0.82;100.00
38688;BME280;24444;53.216;-6.664;2022-12-18T11:45:24;98894.68;;;0.84;100.00
38688;BME280;24444;53.216;-6.664;2022-12-18T11:47:57;98875.77;;;1.41;100.00
38688;BME280;24444;53.216;-6.664;2022-12-18T11:50:30;98877.07;;;1.13;100.00
38688;BME280;24444;53.216;-6.664;2022-12-18T11:52:59;98895.79;;;0.82;100.00
38688;BME280;24444;53.216;-6.664;2022-12-18T11:55:32;98885.94;;;1.24;100.00
38688;BME280;24444;53.216;-6.664;2022-12-18T11:58:09;98886.26;;;1.13;100.00
38688;BME280;24444;53.216;-6.664;2022-12-18T12:00:43;98893.36;;;1.55;100.00
38688;BME280;24444;53.216;-6.664;2022-12-18T12:03:23;98896.11;;;1.49;100.00
38688;BME280;24444;53.216;-6.664;2022-12-18T12:06:01;98888.81;;;1.54;100.00
38688;BME280;24444;53.216;-6.664;2022-12-18T12:08:42;98887.34;;;1.44;100.00
38688;BME280;24444;53.216;-6.664;2022-12-18T12:11:22;98882.01;;;1.03;100.00
38688;BME280;24444;53.216;-6.664;2022-12-18T12:14:09;98888.48;;;1.31;100.00
38688;BME280;24444;53.216;-6.664;2022-12-18T12:16:47;98877.66;;;1.66;100.00
38688;BME280;24444;53.216;-6.664;2022-12-18T12:19:30;98877.54;;;1.63;100.00
38688;BME280;24444;53.216;-6.664;2022-12-18T12:22:09;98868.07;;;1.52;100.00
38688;BME280;24444;53.216;-6.664;2022-12-18T12:24:51;98860.12;;;2.12;100.00
38688;BME280;24444;53.216;-6.664;2022-12-18T12:27:30;98860.41;;;2.04;100.00
38688;BME280;24444;53.216;-6.664;2022-12-18T12:30:05;98860.51;;;2.51;100.00
38688;BME280;24444;53.216;-6.664;2022-12-18T12:32:47;98841.93;;;2.74;100.00
38688;BME280;24444;53.216;-6.664;2022-12-18T12:35:25;98826.85;;;2.93;100.00
38688;BME280;24444;53.216;-6.664;2022-12-18T12:38:04;98825.72;;;3.03;100.00
38688;BME280;24444;53.216;-6.664;2022-12-18T12:40:35;98825.38;;;2.89;100.00
38688;BME280;24444;53.216;-6.664;2022-12-18T12:43:15;98806.99;;;3.18;100.00
38688;BME280;24444;53.216;-6.664;2022-12-18T12:45:49;98795.29;;;2.32;100.00
38688;BME280;24444;53.216;-6.664;2022-12-18T12:48:29;98796.70;;;3.17;100.00
38688;BME280;24444;53.216;-6.664;2022-12-18T12:50:59;98788.30;;;3.27;100.00
38688;BME280;24444;53.216;-6.664;2022-12-18T12:53:32;98781.06;;;2.37;100.00
38688;BME280;24444;53.216;-6.664;2022-12-18T12:56:02;98787.66;;;2.38;100.00